createdAt,value
2023-03-17T00:00:23.733Z,66.73
2023-03-17T00:02:59.621Z,66.77
2023-03-17T00:05:33.360Z,67.34
2023-03-17T00:08:12.507Z,67.00
2023-03-17T00:10:39.159Z,67.38
2023-03-17T00:13:06.363Z,67.33
2023-03-17T00:15:33.138Z,67.50
2023-03-17T00:17:59.698Z,66.93
2023-03-17T00:20:29.535Z,66.99
2023-03-17T00:22:59.234Z,67.17
2023-03-17T00:25:28.982Z,66.97
2023-03-17T00:27:58.204Z,66.24
2023-03-17T00:30:27.951Z,66.02
2023-03-17T00:32:57.701Z,66.34
2023-03-17T00:35:28.986Z,66.04
2023-03-17T00:37:57.694Z,66.26
2023-03-17T00:40:31.390Z,66.54
2023-03-17T00:43:00.149Z,66.25
2023-03-17T00:45:27.206Z,66.88
2023-03-17T00:47:56.061Z,66.79
2023-03-17T00:50:25.478Z,66.76
2023-03-17T00:52:55.229Z,67.81
2023-03-17T00:55:23.444Z,67.50
2023-03-17T00:57:50.752Z,67.25
2023-03-17T01:00:24.639Z,67.72
2023-03-17T01:02:57.354Z,67.06
2023-03-17T01:05:26.117Z,68.22
2023-03-17T01:07:55.154Z,68.23
2023-03-17T01:10:28.374Z,68.37
2023-03-17T01:13:00.536Z,68.66
2023-03-17T01:15:31.593Z,68.68
2023-03-17T01:17:59.544Z,68.35
2023-03-17T01:20:29.396Z,68.30
2023-03-17T01:22:56.199Z,68.21
2023-03-17T01:25:23.726Z,67.70
2023-03-17T01:27:50.965Z,68.02
2023-03-17T01:30:20.680Z,66.96
2023-03-17T01:32:47.460Z,67.40
2023-03-17T01:35:14.610Z,67.02
2023-03-17T01:37:41.411Z,66.46
2023-03-17T01:40:12.848Z,66.50
2023-03-17T01:42:40.037Z,66.70
2023-03-17T01:45:28.525Z,66.24
2023-03-17T01:47:55.125Z,65.25
2023-03-17T01:50:21.876Z,65.17
2023-03-17T01:52:48.664Z,64.13
2023-03-17T01:55:17.954Z,64.18
2023-03-17T01:57:56.409Z,64.03
2023-03-17T02:00:24.914Z,63.57
2023-03-17T02:02:57.108Z,63.91
2023-03-17T02:05:29.902Z,63.67
2023-03-17T02:07:56.777Z,64.47
2023-03-17T02:10:29.828Z,64.33
2023-03-17T02:13:00.314Z,65.29
2023-03-17T02:15:37.832Z,65.79
2023-03-17T02:18:04.688Z,65.88
2023-03-17T02:20:31.579Z,66.54
2023-03-17T02:22:59.551Z,66.88
2023-03-17T02:25:29.199Z,67.49
2023-03-17T02:28:01.841Z,67.49
2023-03-17T02:30:29.066Z,68.20
2023-03-17T02:32:55.886Z,67.93
2023-03-17T02:35:23.438Z,67.85
2023-03-17T02:37:50.132Z,67.48
2023-03-17T02:40:17.491Z,67.59
2023-03-17T02:42:44.815Z,67.92
2023-03-17T02:45:12.716Z,67.52
2023-03-17T02:47:40.038Z,67.32
2023-03-17T02:50:07.771Z,67.01
2023-03-17T02:52:34.375Z,66.96
2023-03-17T02:55:01.115Z,66.71
2023-03-17T02:57:27.681Z,67.11
2023-03-17T02:59:54.275Z,66.95
2023-03-17T03:02:20.902Z,67.00
2023-03-17T03:04:47.790Z,67.18
2023-03-17T03:07:14.462Z,67.07
2023-03-17T03:09:42.165Z,67.08
2023-03-17T03:12:10.102Z,67.10
2023-03-17T03:14:36.774Z,67.00
2023-03-17T03:17:04.510Z,67.48
2023-03-17T03:19:31.232Z,67.75
2023-03-17T03:21:57.893Z,66.78
2023-03-17T03:24:24.471Z,66.71
2023-03-17T03:26:51.799Z,66.88
2023-03-17T03:29:18.446Z,66.93
2023-03-17T03:31:45.126Z,66.89
2023-03-17T03:34:12.017Z,67.37
2023-03-17T03:36:38.626Z,67.56
2023-03-17T03:39:05.254Z,67.15
2023-03-17T03:41:31.880Z,67.42
2023-03-17T03:43:58.510Z,66.95
2023-03-17T03:46:26.722Z,67.23
2023-03-17T03:48:54.737Z,67.10
2023-03-17T03:51:21.356Z,67.04
2023-03-17T03:53:50.736Z,66.86
2023-03-17T03:56:17.438Z,66.77
2023-03-17T03:58:44.047Z,66.80
2023-03-17T04:01:10.648Z,66.31
2023-03-17T04:03:38.528Z,65.58
2023-03-17T04:06:05.867Z,64.59
2023-03-17T04:08:32.530Z,64.50
2023-03-17T04:10:59.183Z,64.38
2023-03-17T04:13:25.777Z,63.50
2023-03-17T04:15:52.764Z,63.74
2023-03-17T04:18:19.546Z,63.50
2023-03-17T04:20:46.104Z,63.52
2023-03-17T04:23:12.884Z,63.28
2023-03-17T04:25:39.473Z,63.34
2023-03-17T04:28:06.464Z,63.19
2023-03-17T04:30:33.298Z,62.81
2023-03-17T04:32:59.953Z,63.20
2023-03-17T04:35:27.142Z,63.19
2023-03-17T04:37:53.794Z,62.64
2023-03-17T04:40:20.745Z,62.19
2023-03-17T04:42:47.413Z,61.70
2023-03-17T04:45:15.557Z,62.50
2023-03-17T04:47:42.625Z,62.07
2023-03-17T04:50:10.352Z,62.23
2023-03-17T04:52:37.689Z,62.34
2023-03-17T04:55:08.316Z,62.23
2023-03-17T04:57:36.136Z,61.98
2023-03-17T05:00:05.060Z,62.31
2023-03-17T05:02:43.797Z,62.25
2023-03-17T05:05:10.385Z,62.36
2023-03-17T05:07:36.971Z,62.86
2023-03-17T05:10:04.286Z,62.89
2023-03-17T05:12:31.118Z,63.08
2023-03-17T05:14:57.732Z,63.49
2023-03-17T05:17:24.377Z,63.60
2023-03-17T05:19:51.010Z,64.18
2023-03-17T05:22:17.600Z,64.16
2023-03-17T05:24:44.303Z,64.27
2023-03-17T05:27:11.051Z,63.96
2023-03-17T05:29:38.107Z,64.10
2023-03-17T05:32:05.043Z,64.48
2023-03-17T05:34:32.119Z,64.81
2023-03-17T05:36:58.707Z,64.09
2023-03-17T05:39:25.338Z,64.16
2023-03-17T05:41:52.296Z,64.10
2023-03-17T05:44:20.361Z,64.36
2023-03-17T05:46:46.953Z,65.66
2023-03-17T05:49:13.619Z,66.57
2023-03-17T05:51:41.975Z,67.38
2023-03-17T05:54:09.429Z,67.58
2023-03-17T05:56:36.533Z,68.13
2023-03-17T05:59:04.585Z,67.93
2023-03-17T06:01:31.442Z,67.05
2023-03-17T06:03:58.135Z,67.11
2023-03-17T06:06:25.827Z,66.32
2023-03-17T06:08:52.462Z,66.12
2023-03-17T06:11:21.469Z,65.42
2023-03-17T06:13:48.513Z,64.42
2023-03-17T06:16:15.292Z,64.54
2023-03-17T06:18:42.044Z,63.46
2023-03-17T06:21:08.644Z,62.45
2023-03-17T06:23:36.591Z,62.63
2023-03-17T06:26:03.390Z,62.26
2023-03-17T06:28:30.685Z,61.84
2023-03-17T06:30:57.386Z,61.82
2023-03-17T06:33:24.980Z,61.54
2023-03-17T06:35:51.716Z,62.41
2023-03-17T06:38:18.384Z,60.85
2023-03-17T06:40:44.962Z,60.16
2023-03-17T06:43:11.547Z,59.19
2023-03-17T06:45:38.194Z,58.25
2023-03-17T06:48:04.964Z,58.63
2023-03-17T06:50:31.905Z,58.20
2023-03-17T06:52:58.605Z,58.95
2023-03-17T06:55:25.231Z,58.12
2023-03-17T06:57:52.455Z,58.89
2023-03-17T07:00:20.981Z,57.67
2023-03-17T07:02:55.507Z,57.68
2023-03-17T07:05:22.811Z,58.00
2023-03-17T07:07:49.786Z,58.28
2023-03-17T07:10:17.296Z,57.40
2023-03-17T07:12:44.961Z,57.98
2023-03-17T07:15:12.548Z,56.07
2023-03-17T07:17:39.270Z,56.31
2023-03-17T07:20:06.857Z,56.18
2023-03-17T07:22:33.645Z,56.98
2023-03-17T07:25:00.352Z,56.64
2023-03-17T07:27:27.046Z,56.57
2023-03-17T07:29:53.758Z,55.50
2023-03-17T07:32:20.358Z,55.58
2023-03-17T07:34:47.085Z,55.35
2023-03-17T07:37:13.699Z,53.71
2023-03-17T07:39:40.301Z,54.28
2023-03-17T07:42:06.939Z,55.28
2023-03-17T07:44:33.780Z,52.91
2023-03-17T07:47:00.404Z,54.38
2023-03-17T07:49:40.472Z,53.10
2023-03-17T07:52:09.228Z,54.13
2023-03-17T07:54:37.032Z,54.11
2023-03-17T07:57:04.590Z,53.58
2023-03-17T07:59:31.738Z,54.52
2023-03-17T08:02:05.840Z,54.26
2023-03-17T08:04:32.480Z,54.28
2023-03-17T08:06:59.058Z,52.72
2023-03-17T08:09:25.800Z,53.13
2023-03-17T08:11:52.603Z,52.36
2023-03-17T08:14:19.689Z,51.99
2023-03-17T08:16:46.417Z,51.55
2023-03-17T08:19:13.156Z,51.85
2023-03-17T08:21:39.951Z,51.18
2023-03-17T08:24:06.997Z,52.38
2023-03-17T08:26:33.886Z,51.28
2023-03-17T08:29:01.353Z,51.49
2023-03-17T08:31:28.623Z,51.88
2023-03-17T08:33:57.262Z,51.07
2023-03-17T08:36:24.382Z,51.29
2023-03-17T08:38:51.285Z,50.57
2023-03-17T08:41:21.264Z,52.62
2023-03-17T08:43:48.416Z,51.84
2023-03-17T08:46:24.096Z,51.06
2023-03-17T08:48:54.078Z,52.21
2023-03-17T08:51:24.254Z,51.42
2023-03-17T08:53:52.224Z,51.56
2023-03-17T08:56:19.414Z,52.74
2023-03-17T08:58:47.025Z,52.76
2023-03-17T09:01:15.314Z,53.85
2023-03-17T09:03:42.696Z,53.29
2023-03-17T09:06:12.385Z,53.37
2023-03-17T09:08:44.677Z,52.20
2023-03-17T09:11:14.779Z,53.15
2023-03-17T09:13:41.612Z,53.09
2023-03-17T09:16:08.933Z,51.49
2023-03-17T09:18:36.237Z,52.38
2023-03-17T09:21:04.097Z,52.11
2023-03-17T09:23:31.104Z,52.65
2023-03-17T09:25:58.082Z,52.52
2023-03-17T09:28:24.985Z,52.33
2023-03-17T09:30:52.831Z,52.57
2023-03-17T09:33:19.509Z,52.04
2023-03-17T09:35:46.091Z,51.80
2023-03-17T09:38:12.841Z,51.06
2023-03-17T09:40:48.737Z,51.38
2023-03-17T09:43:37.200Z,52.63
2023-03-17T09:46:36.024Z,51.17
2023-03-17T09:49:28.480Z,51.95
2023-03-17T09:51:55.665Z,52.08
2023-03-17T09:54:25.158Z,52.14
2023-03-17T09:57:01.721Z,50.18
2023-03-17T09:59:40.478Z,50.30
2023-03-17T10:02:19.894Z,49.94
2023-03-17T10:04:48.849Z,50.10
2023-03-17T10:07:22.628Z,49.48
2023-03-17T10:10:03.151Z,49.20
2023-03-17T10:12:47.203Z,49.64
2023-03-17T10:15:20.033Z,49.00
2023-03-17T10:17:47.698Z,49.37
2023-03-17T10:20:26.031Z,48.80
2023-03-17T10:22:58.672Z,47.81
2023-03-17T10:25:32.747Z,48.79
2023-03-17T10:28:09.134Z,49.61
2023-03-17T10:30:36.369Z,47.48
2023-03-17T10:33:07.243Z,47.01
2023-03-17T10:35:36.463Z,49.15
2023-03-17T10:38:19.396Z,47.01
2023-03-17T10:40:54.874Z,47.32
2023-03-17T10:43:22.632Z,47.16
2023-03-17T10:46:18.303Z,46.88
2023-03-17T10:48:52.396Z,48.11
2023-03-17T10:51:36.985Z,48.23
2023-03-17T10:54:26.636Z,47.88
2023-03-17T10:57:02.887Z,47.95
2023-03-17T10:59:33.285Z,48.86
2023-03-17T11:02:07.847Z,47.87
2023-03-17T11:04:42.875Z,47.74
2023-03-17T11:07:18.673Z,46.49
2023-03-17T11:09:57.576Z,46.74
2023-03-17T11:12:26.671Z,46.93
2023-03-17T11:15:05.339Z,47.71
2023-03-17T11:17:52.395Z,46.50
2023-03-17T11:20:40.952Z,48.70
2023-03-17T11:23:46.788Z,48.45
2023-03-17T11:26:35.633Z,46.77
2023-03-17T11:29:17.580Z,48.13
2023-03-17T11:32:11.815Z,47.86
2023-03-17T11:35:02.320Z,46.79
2023-03-17T11:37:38.790Z,47.12
2023-03-17T11:40:12.078Z,45.59
2023-03-17T11:42:59.352Z,45.19
2023-03-17T11:45:47.416Z,47.10
2023-03-17T11:48:37.513Z,46.78
2023-03-17T11:51:34.629Z,47.79
2023-03-17T11:54:10.991Z,45.53
2023-03-17T11:57:03.609Z,46.10
2023-03-17T11:59:48.342Z,45.02
2023-03-17T12:02:27.800Z,45.73
2023-03-17T12:05:01.534Z,46.43
2023-03-17T12:07:39.876Z,45.57
2023-03-17T12:10:16.166Z,45.79
2023-03-17T12:13:01.412Z,45.79
2023-03-17T12:15:36.307Z,44.61
2023-03-17T12:18:13.330Z,46.26
2023-03-17T12:21:05.517Z,44.76
2023-03-17T12:23:45.316Z,45.27
2023-03-17T12:26:16.740Z,45.83
2023-03-17T12:28:59.257Z,45.47
2023-03-17T12:31:43.249Z,43.86
2023-03-17T12:34:20.935Z,42.56
2023-03-17T12:36:49.701Z,43.55
2023-03-17T12:39:22.566Z,43.20
2023-03-17T12:42:13.653Z,43.77
2023-03-17T12:44:59.108Z,43.75
2023-03-17T12:47:48.447Z,44.69
2023-03-17T12:51:07.436Z,45.28
2023-03-17T12:53:39.265Z,46.27
2023-03-17T12:56:20.091Z,45.87
2023-03-17T12:58:54.004Z,45.78
2023-03-17T13:01:34.882Z,45.84
2023-03-17T13:04:18.377Z,47.60
2023-03-17T13:07:08.038Z,46.34
2023-03-17T13:09:44.611Z,46.77
2023-03-17T13:12:40.614Z,45.96
2023-03-17T13:15:29.080Z,47.74
2023-03-17T13:18:19.121Z,46.00
2023-03-17T13:20:59.784Z,46.36
2023-03-17T13:23:48.002Z,47.09
2023-03-17T13:26:21.448Z,45.56
2023-03-17T13:28:51.400Z,47.28
2023-03-17T13:31:27.879Z,47.55
2023-03-17T13:34:14.028Z,47.13
2023-03-17T13:37:23.638Z,47.21
2023-03-17T13:40:26.624Z,47.09
2023-03-17T13:43:32.077Z,47.75
2023-03-17T13:46:22.808Z,47.99
2023-03-17T13:48:51.127Z,46.81
2023-03-17T13:51:25.485Z,46.34
2023-03-17T13:53:59.521Z,46.87
2023-03-17T13:56:47.062Z,46.03
2023-03-17T13:59:36.885Z,47.33
2023-03-17T14:02:17.210Z,46.68
2023-03-17T14:04:56.421Z,46.36
2023-03-17T14:07:29.315Z,46.77
2023-03-17T14:10:00.617Z,47.64
2023-03-17T14:12:43.101Z,48.08
2023-03-17T14:15:24.713Z,46.90
2023-03-17T14:17:59.275Z,47.54
2023-03-17T14:20:28.572Z,47.58
2023-03-17T14:23:01.081Z,47.65
2023-03-17T14:25:37.556Z,46.65
2023-03-17T14:28:10.694Z,47.05
2023-03-17T14:30:40.030Z,47.22
2023-03-17T14:33:21.764Z,47.62
2023-03-17T14:35:52.109Z,47.22
2023-03-17T14:38:25.028Z,46.67
2023-03-17T14:41:17.096Z,46.40
2023-03-17T14:43:45.025Z,46.77
2023-03-17T14:46:27.067Z,47.54
2023-03-17T14:48:59.772Z,49.41
2023-03-17T14:51:36.789Z,50.60
2023-03-17T14:54:13.602Z,50.42
2023-03-17T14:56:44.660Z,51.11
2023-03-17T14:59:24.728Z,52.71
2023-03-17T15:01:58.775Z,51.83
2023-03-17T15:04:28.086Z,52.15
2023-03-17T15:07:01.765Z,51.88
2023-03-17T15:09:41.676Z,52.20
2023-03-17T15:12:26.594Z,52.68
2023-03-17T15:14:56.417Z,52.91
2023-03-17T15:17:28.211Z,53.11
2023-03-17T15:20:00.413Z,53.07
2023-03-17T15:22:36.244Z,52.10
2023-03-17T15:25:17.283Z,51.30
2023-03-17T15:27:44.873Z,52.41
2023-03-17T15:30:12.795Z,52.35
2023-03-17T15:32:39.746Z,51.57
2023-03-17T15:35:08.453Z,51.44
2023-03-17T15:37:35.768Z,50.19
2023-03-17T15:40:03.443Z,50.60
2023-03-17T15:42:32.733Z,51.18
2023-03-17T15:45:01.254Z,50.50
2023-03-17T15:47:30.094Z,49.17
2023-03-17T15:50:12.214Z,49.39
2023-03-17T15:52:38.814Z,49.27
2023-03-17T15:55:18.418Z,49.37
2023-03-17T15:57:53.810Z,49.36
2023-03-17T16:00:23.694Z,49.73
2023-03-17T16:02:55.398Z,48.12
2023-03-17T16:05:24.600Z,48.99
2023-03-17T16:07:52.564Z,48.43
2023-03-17T16:10:27.842Z,48.98
2023-03-17T16:12:54.857Z,49.99
2023-03-17T16:15:27.898Z,49.18
2023-03-17T16:17:59.183Z,49.42
2023-03-17T16:20:36.647Z,49.98
2023-03-17T16:23:08.761Z,51.11
2023-03-17T16:25:36.799Z,52.17
2023-03-17T16:28:16.686Z,56.02
2023-03-17T16:30:46.241Z,57.84
2023-03-17T16:33:24.930Z,59.94
2023-03-17T16:35:53.588Z,62.58
2023-03-17T16:38:22.937Z,62.79
2023-03-17T16:40:55.755Z,64.08
2023-03-17T16:43:28.954Z,63.62
2023-03-17T16:45:58.883Z,64.20
2023-03-17T16:48:35.137Z,65.60
2023-03-17T16:51:04.619Z,66.27
2023-03-17T16:53:31.566Z,66.35
2023-03-17T16:55:58.935Z,66.70
2023-03-17T16:58:37.252Z,66.34
2023-03-17T17:01:12.240Z,66.43
2023-03-17T17:03:38.968Z,64.33
2023-03-17T17:06:07.327Z,64.38
2023-03-17T17:08:34.402Z,64.57
2023-03-17T17:11:01.585Z,64.68
2023-03-17T17:13:28.711Z,63.95
2023-03-17T17:15:57.689Z,62.69
2023-03-17T17:18:26.146Z,62.15
2023-03-17T17:20:54.313Z,59.74
2023-03-17T17:23:26.139Z,57.70
2023-03-17T17:25:54.544Z,57.75
2023-03-17T17:28:23.787Z,57.47
2023-03-17T17:30:52.393Z,57.49
2023-03-17T17:33:21.461Z,57.15
2023-03-17T17:35:49.855Z,57.28
2023-03-17T17:38:26.661Z,57.34
2023-03-17T17:40:55.760Z,55.52
2023-03-17T17:43:24.593Z,55.40
2023-03-17T17:45:52.711Z,54.60
2023-03-17T17:48:23.358Z,54.31
2023-03-17T17:50:52.198Z,53.71
2023-03-17T17:53:19.387Z,53.82
2023-03-17T17:55:48.330Z,55.00
2023-03-17T17:58:18.422Z,56.19
2023-03-17T18:00:46.004Z,54.40
2023-03-17T18:03:13.357Z,54.85
2023-03-17T18:05:40.486Z,54.92
2023-03-17T18:08:07.707Z,54.79
2023-03-17T18:10:35.088Z,54.00
2023-03-17T18:13:01.777Z,54.66
2023-03-17T18:15:29.007Z,54.36
2023-03-17T18:17:56.442Z,54.13
2023-03-17T18:20:24.451Z,54.29
2023-03-17T18:22:52.363Z,53.84
2023-03-17T18:25:20.238Z,54.34
2023-03-17T18:27:47.934Z,54.55
2023-03-17T18:30:22.592Z,54.25
2023-03-17T18:32:52.387Z,54.29
2023-03-17T18:35:22.777Z,54.35
2023-03-17T18:37:50.826Z,53.91
2023-03-17T18:40:19.183Z,54.13
2023-03-17T18:42:46.412Z,54.34
2023-03-17T18:45:13.907Z,54.78
2023-03-17T18:47:41.968Z,55.46
2023-03-17T18:50:12.022Z,55.67
2023-03-17T18:52:41.101Z,55.33
2023-03-17T18:55:10.074Z,55.57
2023-03-17T18:57:37.154Z,55.09
2023-03-17T19:00:05.902Z,55.99
2023-03-17T19:02:33.345Z,55.16
2023-03-17T19:05:01.075Z,55.55
2023-03-17T19:07:28.010Z,55.38
2023-03-17T19:09:54.781Z,55.44
2023-03-17T19:12:21.538Z,55.24
2023-03-17T19:14:48.304Z,56.18
2023-03-17T19:17:14.964Z,57.02
2023-03-17T19:19:41.863Z,57.32
2023-03-17T19:22:09.525Z,56.71
2023-03-17T19:24:37.709Z,56.93
2023-03-17T19:27:05.303Z,56.45
2023-03-17T19:29:32.787Z,56.68
2023-03-17T19:31:59.450Z,57.56
2023-03-17T19:34:27.145Z,57.48
2023-03-17T19:36:54.065Z,58.50
2023-03-17T19:39:21.625Z,57.08
2023-03-17T19:41:50.075Z,57.26
2023-03-17T19:44:16.853Z,57.29
2023-03-17T19:46:43.437Z,57.34
2023-03-17T19:49:11.738Z,57.18
2023-03-17T19:51:38.393Z,57.09
2023-03-17T19:54:05.428Z,58.64
2023-03-17T19:56:32.074Z,59.24
2023-03-17T19:58:58.675Z,60.30
2023-03-17T20:01:26.706Z,62.58
2023-03-17T20:03:53.395Z,66.22
2023-03-17T20:06:20.443Z,64.27
2023-03-17T20:08:47.062Z,66.24
2023-03-17T20:11:13.925Z,67.39
2023-03-17T20:13:41.017Z,68.64
2023-03-17T20:16:08.211Z,69.17
2023-03-17T20:18:35.120Z,71.16
2023-03-17T20:21:05.582Z,69.91
2023-03-17T20:23:33.311Z,68.90
2023-03-17T20:25:59.968Z,68.42
2023-03-17T20:28:28.271Z,66.52
2023-03-17T20:31:01.172Z,69.24
2023-03-17T20:33:27.857Z,70.04
2023-03-17T20:35:54.625Z,69.38
2023-03-17T20:38:21.362Z,71.23
2023-03-17T20:40:47.970Z,69.26
2023-03-17T20:43:14.810Z,69.82
2023-03-17T20:45:43.631Z,75.33
2023-03-17T20:48:11.585Z,77.92
2023-03-17T20:50:39.096Z,78.53
2023-03-17T20:53:05.903Z,78.00
2023-03-17T20:55:33.083Z,77.26
2023-03-17T20:57:59.943Z,79.10
2023-03-17T21:00:26.751Z,75.19
2023-03-17T21:03:09.389Z,79.14
2023-03-17T21:05:36.776Z,80.96
2023-03-17T21:08:05.509Z,79.36
2023-03-17T21:10:32.907Z,80.49
2023-03-17T21:12:59.870Z,81.67
2023-03-17T21:15:27.314Z,80.29
2023-03-17T21:17:53.902Z,81.44
2023-03-17T21:20:21.669Z,85.45
2023-03-17T21:22:48.368Z,86.45
2023-03-17T21:25:15.112Z,89.32
2023-03-17T21:27:42.911Z,85.34
2023-03-17T21:30:12.724Z,85.72
2023-03-17T21:32:40.698Z,83.77
2023-03-17T21:35:08.529Z,81.74
2023-03-17T21:37:35.544Z,82.41
2023-03-17T21:40:02.493Z,82.58
2023-03-17T21:42:29.416Z,82.60
2023-03-17T21:44:56.021Z,83.05
2023-03-17T21:47:23.019Z,84.86
2023-03-17T21:49:49.773Z,84.29
2023-03-17T21:52:16.832Z,86.79
2023-03-17T21:54:43.667Z,86.05
2023-03-17T21:57:12.234Z,86.83
2023-03-17T21:59:40.268Z,87.05
2023-03-17T22:02:12.871Z,87.25
2023-03-17T22:04:41.754Z,89.02
2023-03-17T22:07:08.424Z,87.69
2023-03-17T22:09:36.238Z,86.71
2023-03-17T22:12:04.469Z,86.50
2023-03-17T22:14:31.391Z,86.17
2023-03-17T22:16:58.632Z,85.88
2023-03-17T22:19:25.970Z,85.98
2023-03-17T22:21:53.083Z,85.62
2023-03-17T22:24:19.762Z,87.29
2023-03-17T22:26:46.622Z,87.93
2023-03-17T22:29:13.804Z,86.91
2023-03-17T22:31:42.687Z,88.09
2023-03-17T22:34:10.075Z,89.03
2023-03-17T22:36:37.651Z,90.32
2023-03-17T22:39:06.968Z,90.70
2023-03-17T22:41:34.094Z,91.19
2023-03-17T22:44:01.173Z,91.34
2023-03-17T22:46:28.044Z,92.16
2023-03-17T22:48:55.144Z,92.96
2023-03-17T22:51:24.615Z,90.49
2023-03-17T22:53:52.554Z,90.81
2023-03-17T22:56:19.981Z,92.23
2023-03-17T22:58:47.179Z,93.30
2023-03-17T23:01:17.024Z,93.27
2023-03-17T23:03:44.255Z,94.17
2023-03-17T23:06:13.112Z,95.71
2023-03-17T23:08:42.912Z,93.86
2023-03-17T23:11:23.423Z,95.08
2023-03-17T23:13:52.621Z,94.70
2023-03-17T23:16:20.377Z,94.13
2023-03-17T23:18:47.241Z,94.76
2023-03-17T23:21:30.227Z,97.01
2023-03-17T23:23:57.257Z,100.00
2023-03-17T23:26:24.019Z,98.78
2023-03-17T23:28:51.286Z,100.00
2023-03-17T23:31:19.402Z,100.00
2023-03-17T23:33:47.855Z,100.00
2023-03-17T23:36:16.255Z,100.00
2023-03-17T23:38:44.350Z,100.00
2023-03-17T23:41:13.506Z,100.00
2023-03-17T23:43:40.755Z,100.00
2023-03-17T23:46:07.402Z,100.00
2023-03-17T23:48:34.131Z,100.00
2023-03-17T23:51:01.160Z,100.00
2023-03-17T23:53:28.396Z,100.00
2023-03-17T23:55:55.144Z,100.00
2023-03-17T23:58:22.815Z,100.00
